Time;durP1;ratioP1;P1;durP2;ratioP2;P2;SDS_P1;SDS_P2;PMS_P1;PMS_P2;Temp;Humidity;BMP_temperature;BMP_pressure;BME280_temperature;BME280_humidity;BME280_pressure;Samples;Min_cycle;Max_cycle;Signal;HPM_P1;HPM_P2
2023/09/15 00:00:44;;;;;;;4.28;1.80;;;19.50;99.90;;;;;;5070875;28;20489;-82
2023/09/15 00:03:11;;;;;;;2.70;1.48;;;19.50;99.90;;;;;;5069573;28;20063;-83
2023/09/15 00:05:37;;;;;;;3.33;1.90;;;19.50;99.90;;;;;;5069796;28;20162;-83
2023/09/15 00:08:04;;;;;;;4.80;2.80;;;19.50;99.90;;;;;;5071164;28;20024;-82
2023/09/15 00:10:37;;;;;;;8.48;1.90;;;19.50;99.90;;;;;;5070863;28;20024;-83
2023/09/15 00:13:03;;;;;;;3.47;2.10;;;19.50;99.90;;;;;;5069680;28;20036;-82
2023/09/15 00:15:28;;;;;;;2.33;1.85;;;19.50;99.90;;;;;;5069302;28;20056;-82
2023/09/15 00:17:55;;;;;;;2.83;1.67;;;19.50;99.90;;;;;;5070672;28;20540;-84
2023/09/15 00:20:20;;;;;;;3.47;1.75;;;19.50;99.90;;;;;;5069397;28;20025;-83
2023/09/15 00:22:49;;;;;;;3.97;2.42;;;19.40;99.90;;;;;;5071220;28;20385;-84
2023/09/15 00:25:19;;;;;;;6.10;2.13;;;19.40;99.90;;;;;;5069768;28;20087;-83
2023/09/15 00:27:54;;;;;;;2.10;1.48;;;19.40;99.90;;;;;;5070982;28;20532;-83
2023/09/15 00:30:24;;;;;;;5.78;1.98;;;19.40;99.90;;;;;;5070787;28;20043;-85
2023/09/15 00:32:51;;;;;;;4.32;1.60;;;19.50;99.90;;;;;;5069749;28;20515;-85
2023/09/15 00:35:18;;;;;;;3.03;1.70;;;19.40;99.90;;;;;;5071176;28;20062;-86
2023/09/15 00:37:48;;;;;;;3.75;1.67;;;19.50;99.90;;;;;;5071222;28;20189;-84
2023/09/15 00:40:14;;;;;;;3.00;1.98;;;19.40;99.90;;;;;;5069969;28;20085;-86
2023/09/15 00:42:44;;;;;;;3.75;1.90;;;19.40;99.90;;;;;;5070962;28;20068;-86
2023/09/15 00:45:15;;;;;;;7.63;1.80;;;19.50;99.90;;;;;;5069335;28;20056;-85
2023/09/15 00:47:43;;;;;;;1.95;1.42;;;19.50;99.90;;;;;;5069701;28;20036;-87
2023/09/15 00:50:14;;;;;;;3.42;1.70;;;19.60;99.90;;;;;;5069955;28;20408;-85
2023/09/15 00:52:50;;;;;;;3.88;1.60;;;19.60;99.90;;;;;;5069562;28;20047;-87
2023/09/15 00:55:22;;;;;;;2.22;1.60;;;19.60;99.90;;;;;;5070384;28;20065;-87
2023/09/15 00:57:51;;;;;;;3.55;1.75;;;19.60;99.90;;;;;;5069076;28;20036;-86
2023/09/15 01:00:18;;;;;;;2.20;1.38;;;19.60;99.90;;;;;;5070283;28;20031;-85
2023/09/15 01:02:44;;;;;;;2.72;1.58;;;19.50;99.90;;;;;;5069372;28;20024;-86
2023/09/15 01:05:19;;;;;;;8.02;1.52;;;19.50;99.90;;;;;;5070240;28;20484;-85
2023/09/15 01:07:47;;;;;;;7.40;1.60;;;19.50;99.90;;;;;;5069574;28;20070;-85
2023/09/15 01:10:14;;;;;;;3.75;1.75;;;19.40;99.90;;;;;;5069720;28;20056;-85
2023/09/15 01:12:43;;;;;;;2.60;1.67;;;19.30;99.90;;;;;;5070254;28;20043;-85
2023/09/15 01:15:09;;;;;;;2.38;1.45;;;19.20;99.90;;;;;;5079439;28;20160;-84
2023/09/15 01:17:49;;;;;;;2.85;1.50;;;19.10;99.90;;;;;;5090328;28;20111;-85
2023/09/15 01:21:00;;;;;;;8.65;1.65;;;19.10;99.90;;;;;;5089341;28;20031;-87
2023/09/15 01:23:41;;;;;;;3.70;1.50;;;19.00;99.90;;;;;;5083994;28;20036;-86
2023/09/15 01:26:13;;;;;;;2.15;1.40;;;19.00;99.90;;;;;;5091376;28;20103;-86
2023/09/15 01:29:07;;;;;;;6.60;1.58;;;18.90;99.90;;;;;;5086848;28;20028;-85
2023/09/15 01:31:34;;;;;;;2.78;1.20;;;18.80;99.90;;;;;;5069974;28;20017;-85
2023/09/15 01:34:00;;;;;;;2.45;1.27;;;18.70;99.90;;;;;;5069991;28;20033;-85
2023/09/15 01:36:26;;;;;;;2.70;1.55;;;18.70;99.90;;;;;;5085177;28;20056;-85
2023/09/15 01:38:51;;;;;;;2.97;1.55;;;18.60;99.90;;;;;;5086693;28;20031;-86
2023/09/15 01:41:17;;;;;;;3.92;1.40;;;18.50;99.90;;;;;;5088389;28;20032;-87
2023/09/15 01:43:43;;;;;;;2.08;1.50;;;18.60;99.90;;;;;;5089691;28;20051;-85
2023/09/15 01:46:08;;;;;;;2.67;1.40;;;18.50;99.90;;;;;;5086859;28;20012;-85
2023/09/15 01:48:35;;;;;;;5.75;1.10;;;18.50;99.90;;;;;;5082418;28;20335;-86
2023/09/15 01:51:02;;;;;;;5.50;2.63;;;18.40;99.90;;;;;;5095541;28;20036;-86
2023/09/15 01:53:28;;;;;;;7.13;1.77;;;18.40;99.90;;;;;;5110088;28;20028;-86
2023/09/15 01:55:54;;;;;;;2.88;1.85;;;18.30;99.90;;;;;;5108949;28;20058;-87
2023/09/15 01:58:20;;;;;;;9.48;1.60;;;18.30;99.90;;;;;;5110310;28;20480;-85
2023/09/15 02:00:46;;;;;;;2.42;1.30;;;18.30;99.90;;;;;;5109602;28;20032;-85
2023/09/15 02:03:12;;;;;;;3.65;1.48;;;18.20;99.90;;;;;;5110846;28;20496;-87
2023/09/15 02:05:38;;;;;;;2.15;1.50;;;18.20;99.90;;;;;;5109596;28;20492;-85
2023/09/15 02:08:04;;;;;;;3.17;1.48;;;18.10;99.90;;;;;;5111149;28;20049;-84
2023/09/15 02:10:29;;;;;;;3.63;1.58;;;18.10;99.90;;;;;;5115072;28;20034;-85
2023/09/15 02:12:55;;;;;;;5.68;1.83;;;18.10;99.90;;;;;;5114504;28;20030;-84
2023/09/15 02:15:21;;;;;;;9.38;1.25;;;18.00;99.90;;;;;;5113625;28;20107;-84
2023/09/15 02:17:50;;;;;;;6.72;2.25;;;17.90;99.90;;;;;;5112321;28;20036;-86
2023/09/15 02:20:18;;;;;;;3.15;1.35;;;17.90;99.90;;;;;;5111751;28;20027;-84
2023/09/15 02:22:44;;;;;;;2.38;1.13;;;17.90;99.90;;;;;;5113501;28;20012;-86
2023/09/15 02:25:11;;;;;;;3.05;1.20;;;17.90;99.90;;;;;;5112110;28;20113;-85
2023/09/15 02:27:37;;;;;;;8.05;1.20;;;17.80;99.90;;;;;;5112056;28;20022;-87
2023/09/15 02:30:04;;;;;;;3.92;1.63;;;17.80;99.90;;;;;;5111094;28;20467;-86
2023/09/15 02:32:30;;;;;;;2.63;1.13;;;17.80;99.90;;;;;;5112235;28;20032;-87
2023/09/15 02:34:56;;;;;;;2.72;1.75;;;17.80;99.90;;;;;;5112400;28;20080;-86
2023/09/15 02:37:22;;;;;;;1.98;1.30;;;17.70;99.90;;;;;;5112256;28;20102;-86
2023/09/15 02:39:47;;;;;;;1.70;1.08;;;17.70;99.90;;;;;;5112402;28;20096;-85
2023/09/15 02:42:13;;;;;;;2.60;1.77;;;17.60;99.90;;;;;;5113114;28;20034;-87
2023/09/15 02:44:38;;;;;;;2.35;1.33;;;17.60;99.90;;;;;;5113496;28;20110;-85
2023/09/15 02:47:04;;;;;;;3.83;1.20;;;17.60;99.90;;;;;;5113390;28;20051;-85
2023/09/15 02:49:30;;;;;;;4.88;1.30;;;17.40;99.90;;;;;;5113393;28;20072;-87
2023/09/15 02:51:57;;;;;;;3.88;1.60;;;17.30;99.90;;;;;;5113515;28;20584;-85
2023/09/15 02:54:23;;;;;;;3.50;1.35;;;17.20;99.90;;;;;;5113686;28;20058;-86
2023/09/15 02:56:48;;;;;;;2.13;1.13;;;17.20;99.90;;;;;;5113092;28;20531;-87
2023/09/15 02:59:14;;;;;;;2.53;1.52;;;17.10;99.90;;;;;;5112316;28;20038;-87
2023/09/15 03:01:39;;;;;;;3.90;1.30;;;17.00;99.90;;;;;;5111711;28;20065;-86
2023/09/15 03:04:05;;;;;;;3.45;1.48;;;17.00;99.90;;;;;;5113245;28;20034;-86
2023/09/15 03:06:31;;;;;;;2.60;1.73;;;17.00;99.90;;;;;;5113174;28;20043;-88
2023/09/15 03:08:57;;;;;;;4.53;1.27;;;17.00;99.90;;;;;;5111999;28;20027;-86
2023/09/15 03:11:23;;;;;;;7.75;1.00;;;17.00;99.90;;;;;;5112259;28;20111;-88
2023/09/15 03:13:49;;;;;;;2.00;0.98;;;17.00;99.90;;;;;;5112878;28;20050;-87
2023/09/15 03:16:16;;;;;;;1.55;0.80;;;17.10;99.90;;;;;;5112895;28;20046;-85
2023/09/15 03:18:46;;;;;;;5.10;1.10;;;17.30;99.90;;;;;;5112913;28;20084;-86
2023/09/15 03:21:12;;;;;;;2.70;1.25;;;17.40;99.90;;;;;;5111664;28;20039;-86
2023/09/15 03:23:38;;;;;;;1.88;0.70;;;17.50;99.90;;;;;;5111188;28;20019;-87
2023/09/15 03:26:05;;;;;;;3.65;1.13;;;17.60;99.90;;;;;;5111967;28;20039;-85
2023/09/15 03:28:35;;;;;;;2.17;1.10;;;17.70;99.90;;;;;;5111653;28;20169;-84
2023/09/15 03:31:03;;;;;;;2.03;0.80;;;17.60;99.90;;;;;;5111165;28;20114;-86
2023/09/15 03:33:30;;;;;;;4.63;0.90;;;17.80;99.90;;;;;;5112912;28;20027;-85
2023/09/15 03:35:56;;;;;;;3.85;1.02;;;17.90;99.90;;;;;;5112790;28;20028;-88
2023/09/15 03:38:22;;;;;;;2.33;1.25;;;18.00;99.90;;;;;;5111991;28;20035;-87
2023/09/15 03:40:48;;;;;;;1.58;1.00;;;18.00;99.90;;;;;;5112289;28;20032;-86
2023/09/15 03:43:14;;;;;;;1.27;0.77;;;18.10;99.90;;;;;;5111344;28;20028;-87
2023/09/15 03:45:44;;;;;;;3.13;0.93;;;18.10;99.90;;;;;;5111385;28;20028;-85
2023/09/15 03:48:09;;;;;;;2.63;1.00;;;18.10;99.90;;;;;;5113377;28;20024;-85
2023/09/15 03:50:35;;;;;;;2.03;1.25;;;18.00;99.90;;;;;;5112780;28;20445;-87
2023/09/15 03:53:02;;;;;;;2.03;1.00;;;18.00;99.90;;;;;;5111195;28;20393;-85
2023/09/15 03:55:28;;;;;;;2.72;1.13;;;18.00;99.90;;;;;;5111107;28;20035;-87
2023/09/15 03:57:54;;;;;;;3.75;0.80;;;18.00;99.90;;;;;;5111454;28;20061;-85
2023/09/15 04:00:21;;;;;;;3.92;0.93;;;17.90;99.90;;;;;;5110599;28;20038;-88
2023/09/15 04:02:47;;;;;;;1.67;0.90;;;17.80;99.90;;;;;;5110952;28;20063;-86
2023/09/15 04:05:13;;;;;;;1.75;0.95;;;17.80;99.90;;;;;;5110580;28;20123;-86
2023/09/15 04:07:39;;;;;;;2.20;1.10;;;17.70;99.90;;;;;;5110771;28;20110;-86
2023/09/15 04:10:05;;;;;;;1.92;0.80;;;17.70;99.90;;;;;;5112317;28;20407;-87
2023/09/15 04:12:32;;;;;;;2.80;1.08;;;17.70;99.90;;;;;;5110403;28;20038;-87
2023/09/15 04:14:58;;;;;;;1.42;0.70;;;17.70;99.90;;;;;;5111613;28;20407;-86
2023/09/15 04:17:24;;;;;;;2.63;0.75;;;17.60;99.90;;;;;;5110459;28;20067;-89
2023/09/15 04:19:50;;;;;;;1.63;0.82;;;17.60;99.90;;;;;;5110431;28;20020;-86
2023/09/15 04:22:16;;;;;;;2.13;0.82;;;17.60;99.90;;;;;;5111752;28;20027;-88
2023/09/15 04:24:41;;;;;;;5.68;1.05;;;17.60;99.90;;;;;;5110397;28;20066;-87
2023/09/15 04:27:07;;;;;;;1.80;0.80;;;17.60;99.90;;;;;;5110697;28;20039;-87
2023/09/15 04:29:32;;;;;;;2.15;1.20;;;17.50;99.90;;;;;;5111923;28;20517;-86
2023/09/15 04:31:58;;;;;;;2.85;0.90;;;17.60;99.90;;;;;;5109747;28;20031;-88
2023/09/15 04:34:25;;;;;;;3.33;1.00;;;17.60;99.90;;;;;;5111403;28;20028;-86
2023/09/15 04:36:50;;;;;;;3.88;1.20;;;17.50;99.90;;;;;;5110427;28;20035;-87
2023/09/15 04:39:16;;;;;;;2.53;0.80;;;17.60;99.90;;;;;;5111135;28;20080;-88
2023/09/15 04:41:42;;;;;;;1.75;0.90;;;17.60;99.90;;;;;;5111362;28;20042;-87
2023/09/15 04:44:09;;;;;;;2.17;1.00;;;17.60;99.90;;;;;;5110388;28;20632;-86
2023/09/15 04:46:34;;;;;;;1.98;0.95;;;17.60;99.90;;;;;;5110262;28;20024;-85
2023/09/15 04:49:00;;;;;;;2.45;0.95;;;17.60;99.90;;;;;;5110199;28;20019;-88
2023/09/15 04:51:26;;;;;;;2.13;0.90;;;17.60;99.90;;;;;;5110061;28;20031;-87
2023/09/15 04:53:52;;;;;;;6.22;1.33;;;17.50;99.90;;;;;;5111077;28;20437;-87
2023/09/15 04:56:17;;;;;;;3.67;0.90;;;17.50;99.90;;;;;;5109548;28;20046;-86
2023/09/15 04:58:45;;;;;;;4.68;0.80;;;17.50;99.90;;;;;;5110886;28;20019;-85
2023/09/15 05:01:16;;;;;;;2.95;0.88;;;17.60;99.90;;;;;;5110819;28;20520;-86
2023/09/15 05:03:43;;;;;;;1.98;0.63;;;17.70;99.90;;;;;;5110687;28;20038;-85
2023/09/15 05:06:08;;;;;;;3.85;0.75;;;17.80;99.90;;;;;;5109410;28;20027;-86
2023/09/15 05:08:34;;;;;;;1.20;0.70;;;17.90;99.90;;;;;;5110631;28;20177;-86
2023/09/15 05:11:00;;;;;;;6.13;0.70;;;18.00;99.90;;;;;;5109477;28;20020;-86
2023/09/15 05:13:25;;;;;;;5.05;0.82;;;18.10;99.90;;;;;;5110521;28;20036;-85
2023/09/15 05:15:51;;;;;;;3.83;0.98;;;18.20;99.90;;;;;;5108728;28;20060;-86
2023/09/15 05:18:17;;;;;;;1.95;0.90;;;18.20;99.90;;;;;;5110141;28;20502;-86
2023/09/15 05:20:42;;;;;;;1.60;0.80;;;18.20;99.90;;;;;;5109101;28;20032;-86
2023/09/15 05:23:08;;;;;;;3.75;0.80;;;18.20;99.90;;;;;;5109913;28;20027;-87
2023/09/15 05:25:34;;;;;;;1.23;0.77;;;18.20;99.90;;;;;;5110049;28;20081;-85
2023/09/15 05:28:01;;;;;;;2.30;0.77;;;18.30;99.90;;;;;;5110533;28;20035;-84
2023/09/15 05:30:28;;;;;;;1.77;0.70;;;18.30;99.90;;;;;;5110040;28;20529;-86
2023/09/15 05:32:55;;;;;;;1.60;0.60;;;18.30;99.90;;;;;;5109887;28;20031;-86
2023/09/15 05:35:21;;;;;;;10.52;2.25;;;18.40;99.90;;;;;;5109796;28;20058;-86
2023/09/15 05:37:47;;;;;;;2.60;0.93;;;18.50;99.90;;;;;;5110191;28;20388;-86
2023/09/15 05:40:13;;;;;;;1.85;0.68;;;18.60;99.90;;;;;;5108459;28;20036;-85
2023/09/15 05:42:39;;;;;;;1.77;0.70;;;18.70;99.90;;;;;;5109806;28;20020;-86
2023/09/15 05:45:05;;;;;;;4.93;0.93;;;19.00;99.90;;;;;;5109444;28;20016;-81
2023/09/15 05:47:31;;;;;;;1.38;0.90;;;19.40;99.90;;;;;;5108706;28;20026;-80
2023/09/15 05:49:59;;;;;;;2.42;0.88;;;19.70;99.90;;;;;;5108101;28;20027;-81
2023/09/15 05:52:25;;;;;;;1.30;0.80;;;20.00;99.90;;;;;;5109856;28;20541;-82
2023/09/15 05:54:50;;;;;;;2.47;0.75;;;20.20;99.90;;;;;;5108384;28;20035;-81
2023/09/15 05:57:16;;;;;;;2.55;0.80;;;20.30;99.90;;;;;;5108997;28;20080;-81
2023/09/15 05:59:42;;;;;;;2.30;0.80;;;20.40;99.90;;;;;;5108744;28;20053;-80
2023/09/15 06:02:08;;;;;;;8.75;1.38;;;20.40;99.90;;;;;;5109801;28;20072;-82
2023/09/15 06:04:33;;;;;;;1.35;0.73;;;20.50;99.90;;;;;;5109557;28;20071;-82
2023/09/15 06:06:59;;;;;;;1.05;0.60;;;20.50;99.90;;;;;;5108287;28;20026;-82
2023/09/15 06:09:25;;;;;;;3.53;0.82;;;20.40;99.70;;;;;;5108352;28;20372;-81
2023/09/15 06:11:50;;;;;;;2.58;0.70;;;20.30;99.90;;;;;;5109765;28;20031;-82
2023/09/15 06:14:16;;;;;;;2.65;0.90;;;20.30;99.90;;;;;;5108010;28;20031;-81
2023/09/15 06:16:41;;;;;;;2.97;0.70;;;20.30;99.90;;;;;;5109673;28;20537;-81
2023/09/15 06:19:07;;;;;;;1.38;0.65;;;20.40;99.90;;;;;;5109496;28;20031;-81
2023/09/15 06:21:33;;;;;;;2.65;1.55;;;20.60;99.50;;;;;;5107800;28;20507;-82
2023/09/15 06:23:58;;;;;;;1.35;0.77;;;20.50;99.40;;;;;;5108379;28;20055;-82
2023/09/15 06:26:24;;;;;;;3.55;0.60;;;20.40;99.60;;;;;;5108077;28;20031;-82
2023/09/15 06:28:50;;;;;;;3.63;0.85;;;20.40;99.60;;;;;;5108307;28;20504;-80
2023/09/15 06:31:18;;;;;;;2.28;0.80;;;20.60;99.90;;;;;;5109080;28;20035;-81
2023/09/15 06:33:44;;;;;;;4.63;0.70;;;20.70;99.00;;;;;;5109496;28;20026;-80
2023/09/15 06:36:10;;;;;;;1.52;0.70;;;20.80;98.40;;;;;;5109467;28;20126;-81
2023/09/15 06:38:35;;;;;;;4.88;0.82;;;20.80;97.80;;;;;;5109552;28;20015;-81
2023/09/15 06:41:01;;;;;;;4.10;0.52;;;20.80;97.50;;;;;;5107440;28;20043;-81
2023/09/15 06:43:27;;;;;;;1.08;0.47;;;20.90;96.70;;;;;;5108014;28;20381;-82
2023/09/15 06:45:52;;;;;;;1.55;0.70;;;20.90;96.60;;;;;;5109412;28;20098;-81
2023/09/15 06:48:18;;;;;;;1.73;0.60;;;21.00;96.30;;;;;;5107961;28;20027;-80
2023/09/15 06:50:43;;;;;;;1.92;0.70;;;21.20;95.80;;;;;;5109364;28;20032;-81
2023/09/15 06:53:09;;;;;;;6.03;0.60;;;21.30;96.10;;;;;;5107705;28;20019;-83
2023/09/15 06:55:35;;;;;;;1.55;0.55;;;21.60;94.60;;;;;;5110477;28;20035;-85
2023/09/15 06:58:00;;;;;;;1.20;0.50;;;22.20;94.00;;;;;;5113048;28;20016;-83
2023/09/15 07:00:26;;;;;;;1.73;0.60;;;22.70;91.90;;;;;;5112878;28;20030;-83
2023/09/15 07:02:52;;;;;;;3.22;0.60;;;23.20;89.00;;;;;;5111593;28;20499;-81
2023/09/15 07:05:17;;;;;;;1.00;0.50;;;23.60;85.90;;;;;;5112701;28;20039;-81
2023/09/15 07:07:43;;;;;;;1.58;0.52;;;23.90;82.50;;;;;;5111415;28;20053;-81
2023/09/15 07:10:09;;;;;;;1.30;0.60;;;23.80;80.50;;;;;;5111304;28;20372;-83
2023/09/15 07:12:34;;;;;;;1.45;0.50;;;23.50;80.10;;;;;;5112463;28;20440;-84
2023/09/15 07:15:06;;;;;;;1.00;0.40;;;23.50;79.90;;;;;;5112217;28;20039;-81
2023/09/15 07:17:32;;;;;;;1.10;0.63;;;23.30;81.20;;;;;;5110982;28;20056;-82
2023/09/15 07:19:57;;;;;;;1.25;0.50;;;23.10;81.80;;;;;;5112231;28;20027;-83
2023/09/15 07:22:24;;;;;;;1.45;0.60;;;23.10;78.30;;;;;;5112209;28;20081;-83
2023/09/15 07:24:50;;;;;;;1.45;0.55;;;22.80;79.60;;;;;;5112448;28;20031;-84
2023/09/15 07:27:15;;;;;;;1.17;0.50;;;22.70;81.00;;;;;;5112210;28;20484;-83
2023/09/15 07:29:41;;;;;;;1.48;0.50;;;22.80;81.30;;;;;;5110608;28;20057;-83
2023/09/15 07:32:08;;;;;;;4.32;0.70;;;22.70;81.30;;;;;;5110865;28;20032;-83
2023/09/15 07:34:33;;;;;;;5.75;0.82;;;23.00;81.60;;;;;;5110681;28;21994;-84
2023/09/15 07:37:00;;;;;;;2.40;0.52;;;23.50;80.50;;;;;;5112261;28;20115;-80
2023/09/15 07:39:26;;;;;;;2.90;0.75;;;24.40;77.30;;;;;;5111843;28;20024;-82
2023/09/15 07:41:52;;;;;;;2.28;0.93;;;25.50;71.30;;;;;;5111675;27;20512;-81
2023/09/15 07:44:18;;;;;;;2.40;0.40;;;26.10;67.80;;;;;;5110533;28;20034;-81
2023/09/15 07:46:43;;;;;;;2.83;0.60;;;26.60;66.20;;;;;;5110550;28;20026;-81
2023/09/15 07:49:09;;;;;;;2.08;0.98;;;27.40;66.10;;;;;;5111664;28;20050;-81
2023/09/15 07:51:35;;;;;;;1.73;0.70;;;28.50;64.00;;;;;;5110734;28;20051;-82
2023/09/15 07:54:01;;;;;;;0.82;0.50;;;29.60;60.00;;;;;;5111822;28;20040;-82
2023/09/15 07:56:27;;;;;;;1.73;0.82;;;30.70;56.30;;;;;;5111092;28;20032;-81
2023/09/15 07:58:53;;;;;;;4.45;0.60;;;31.40;54.80;;;;;;5109719;28;20035;-81
2023/09/15 08:01:19;;;;;;;2.45;0.70;;;31.60;53.00;;;;;;5110148;28;20027;-82
2023/09/15 08:03:45;;;;;;;2.13;0.50;;;31.90;50.70;;;;;;5111677;28;20457;-81
2023/09/15 08:06:11;;;;;;;1.67;0.60;;;32.20;49.40;;;;;;5110045;28;20027;-81
2023/09/15 08:08:37;;;;;;;3.63;0.70;;;32.60;47.80;;;;;;5111041;28;20042;-82
2023/09/15 08:11:22;;;;;;;3.85;0.60;;;33.10;45.50;;;;;;5111451;28;20015;-83
2023/09/15 08:13:47;;;;;;;0.82;0.40;;;32.80;41.00;;;;;;5110957;28;20062;-81
2023/09/15 08:16:13;;;;;;;1.30;0.60;;;32.50;40.60;;;;;;5110725;28;20083;-81
2023/09/15 08:18:39;;;;;;;1.65;0.57;;;31.90;42.00;;;;;;5111063;28;20028;-82
2023/09/15 08:21:05;;;;;;;0.85;0.50;;;31.60;41.90;;;;;;5111107;28;20027;-81
2023/09/15 08:23:31;;;;;;;1.13;0.45;;;31.10;42.20;;;;;;5110917;28;20777;-82
2023/09/15 08:25:56;;;;;;;1.08;0.50;;;30.60;44.20;;;;;;5109532;28;20034;-82
2023/09/15 08:28:22;;;;;;;1.60;0.47;;;30.40;43.30;;;;;;5110849;28;20114;-81
2023/09/15 08:30:50;;;;;;;2.38;0.50;;;29.90;45.10;;;;;;5109565;28;20039;-81
2023/09/15 08:33:16;;;;;;;0.75;0.40;;;29.80;45.50;;;;;;5110830;28;20015;-81
2023/09/15 08:35:41;;;;;;;1.40;0.50;;;29.80;45.00;;;;;;5109806;28;20066;-83
2023/09/15 08:38:08;;;;;;;0.70;0.40;;;30.00;45.40;;;;;;5109617;28;20551;-83
2023/09/15 08:40:38;;;;;;;1.38;0.70;;;30.00;46.00;;;;;;5109414;28;20094;-81
2023/09/15 08:43:07;;;;;;;1.02;0.50;;;30.20;45.20;;;;;;5110678;28;20020;-81
2023/09/15 08:45:33;;;;;;;2.00;0.60;;;30.10;45.60;;;;;;5109442;28;20042;-81
2023/09/15 08:48:02;;;;;;;1.40;0.40;;;30.20;46.40;;;;;;5109231;28;20106;-82
2023/09/15 08:50:29;;;;;;;3.47;1.15;;;30.50;45.70;;;;;;5109099;28;20416;-83
2023/09/15 08:52:55;;;;;;;1.50;0.50;;;30.50;45.80;;;;;;5110162;28;20026;-81
2023/09/15 08:55:21;;;;;;;0.85;0.47;;;30.50;44.60;;;;;;5110420;28;20058;-83
2023/09/15 08:57:47;;;;;;;1.00;0.40;;;30.30;44.80;;;;;;5110534;28;20488;-83
2023/09/15 09:00:13;;;;;;;0.90;0.40;;;30.50;44.50;;;;;;5108652;28;20035;-82
2023/09/15 09:02:40;;;;;;;2.13;0.50;;;30.50;45.30;;;;;;5110123;28;20484;-82
2023/09/15 09:05:06;;;;;;;4.45;0.80;;;30.90;43.80;;;;;;5110100;28;20031;-83
2023/09/15 09:07:32;;;;;;;1.60;0.50;;;31.20;44.10;;;;;;5110436;28;20024;-82
2023/09/15 09:09:59;;;;;;;1.60;0.52;;;31.40;44.60;;;;;;5110089;28;20058;-83
2023/09/15 09:12:24;;;;;;;3.15;0.60;;;31.60;42.70;;;;;;5110069;28;20027;-82
2023/09/15 09:14:54;;;;;;;2.83;0.65;;;31.20;43.80;;;;;;5108382;28;20036;-82
2023/09/15 09:17:22;;;;;;;1.70;0.55;;;30.40;44.60;;;;;;5109685;28;20081;-82
2023/09/15 09:19:49;;;;;;;1.50;0.50;;;29.50;45.40;;;;;;5109917;28;20461;-81
2023/09/15 09:22:18;;;;;;;7.38;0.70;;;28.80;46.60;;;;;;5110025;28;20434;-83
2023/09/15 09:24:51;;;;;;;1.65;0.60;;;28.10;47.50;;;;;;5109938;28;20034;-82
2023/09/15 09:27:17;;;;;;;1.58;0.60;;;27.40;48.80;;;;;;5108754;28;20058;-82
2023/09/15 09:29:42;;;;;;;3.67;0.50;;;26.80;49.70;;;;;;5109970;28;20027;-81
2023/09/15 09:32:13;;;;;;;0.90;0.50;;;26.30;51.90;;;;;;5109989;28;20028;-82
2023/09/15 09:34:39;;;;;;;1.73;0.82;;;26.00;53.10;;;;;;5109522;28;20031;-83
2023/09/15 09:37:05;;;;;;;2.55;0.60;;;25.80;52.90;;;;;;5108623;28;20034;-81
2023/09/15 09:39:31;;;;;;;1.10;0.40;;;25.50;53.10;;;;;;5109636;28;20077;-82
2023/09/15 09:41:57;;;;;;;1.13;0.40;;;25.30;54.00;;;;;;5109691;28;20083;-81
2023/09/15 09:44:24;;;;;;;0.68;0.40;;;25.50;55.10;;;;;;5109607;28;20028;-81
2023/09/15 09:46:53;;;;;;;1.15;0.50;;;25.70;54.10;;;;;;5110002;28;20056;-81
2023/09/15 09:49:19;;;;;;;1.08;0.57;;;25.80;53.50;;;;;;5109784;28;20030;-81
2023/09/15 09:51:45;;;;;;;4.53;0.60;;;25.90;52.80;;;;;;5109772;28;20039;-82
2023/09/15 09:54:14;;;;;;;3.45;0.50;;;26.10;52.70;;;;;;5108198;28;20031;-82
2023/09/15 09:56:48;;;;;;;0.85;0.40;;;26.10;53.60;;;;;;5108267;28;20563;-82
2023/09/15 09:59:15;;;;;;;1.55;0.55;;;26.20;53.70;;;;;;5109818;28;20457;-82
2023/09/15 10:01:41;;;;;;;1.10;0.45;;;26.40;55.00;;;;;;5108150;28;20027;-83
2023/09/15 10:04:07;;;;;;;1.17;0.40;;;26.70;54.50;;;;;;5109774;28;20020;-82
2023/09/15 10:06:37;;;;;;;2.05;0.52;;;26.80;54.10;;;;;;5109512;28;20039;-82
2023/09/15 10:09:06;;;;;;;2.55;0.70;;;27.20;55.40;;;;;;5108364;28;20028;-83
2023/09/15 10:11:35;;;;;;;1.35;0.45;;;27.90;53.70;;;;;;5109484;28;20104;-83
2023/09/15 10:14:06;;;;;;;2.80;0.40;;;28.10;52.20;;;;;;5109294;28;20067;-81
2023/09/15 10:16:34;;;;;;;2.38;0.60;;;27.80;52.50;;;;;;5107575;28;20142;-83
2023/09/15 10:19:04;;;;;;;1.25;0.43;;;27.60;52.70;;;;;;5108371;28;20484;-81
2023/09/15 10:21:34;;;;;;;5.85;0.70;;;27.90;52.30;;;;;;5109610;28;20070;-82
2023/09/15 10:24:06;;;;;;;1.30;0.50;;;28.00;52.60;;;;;;5109661;28;20020;-82
2023/09/15 10:26:32;;;;;;;1.70;0.40;;;28.00;51.70;;;;;;5109219;28;20028;-81
2023/09/15 10:29:03;;;;;;;1.10;0.30;;;28.10;49.40;;;;;;5109180;28;20028;-82
2023/09/15 10:31:30;;;;;;;0.63;0.40;;;28.20;49.50;;;;;;5113224;28;20059;-81
2023/09/15 10:34:00;;;;;;;1.00;0.30;;;28.30;49.50;;;;;;5112166;28;20034;-83
2023/09/15 10:36:26;;;;;;;2.13;0.60;;;28.40;48.00;;;;;;5112980;28;20035;-83
2023/09/15 10:38:52;;;;;;;2.67;0.60;;;28.30;49.00;;;;;;5112976;28;20162;-83
2023/09/15 10:41:30;;;;;;;0.70;0.40;;;28.20;49.60;;;;;;5113130;28;20130;-84
2023/09/15 10:43:56;;;;;;;2.35;0.50;;;28.10;50.10;;;;;;5111780;28;20582;-83
2023/09/15 10:46:42;;;;;;;1.20;0.60;;;27.80;48.30;;;;;;5112971;28;20110;-81
2023/09/15 10:49:15;;;;;;;2.25;0.57;;;27.70;49.20;;;;;;5113083;28;20412;-81
2023/09/15 10:51:59;;;;;;;1.13;0.55;;;27.30;49.70;;;;;;5111651;28;20031;-82
2023/09/15 10:54:38;;;;;;;1.48;0.50;;;27.10;51.70;;;;;;5112776;27;20515;-82
2023/09/15 10:57:03;;;;;;;3.90;0.50;;;26.80;48.70;;;;;;5113477;27;20560;-83
2023/09/15 10:59:30;;;;;;;4.32;0.80;;;26.80;47.70;;;;;;5113033;28;20027;-83
2023/09/15 11:01:56;;;;;;;1.33;1.00;;;26.60;49.90;;;;;;5113085;28;20027;-83
2023/09/15 11:04:21;;;;;;;4.22;0.60;;;26.40;51.00;;;;;;5112821;28;20024;-83
2023/09/15 11:06:49;;;;;;;1.35;0.40;;;26.20;51.80;;;;;;5112691;28;20039;-83
2023/09/15 11:09:16;;;;;;;11.20;0.52;;;26.00;51.50;;;;;;5111821;28;20031;-82
2023/09/15 11:11:51;;;;;;;1.77;0.50;;;25.90;52.50;;;;;;5112266;28;20093;-82
2023/09/15 11:14:22;;;;;;;3.97;0.40;;;25.90;51.00;;;;;;5112656;28;20027;-82
2023/09/15 11:16:51;;;;;;;3.10;0.73;;;26.00;51.50;;;;;;5112111;28;20046;-81
2023/09/15 11:19:18;;;;;;;2.35;0.50;;;25.90;53.20;;;;;;5112489;27;20041;-84
2023/09/15 11:21:48;;;;;;;2.50;0.50;;;25.90;54.30;;;;;;5111285;28;20042;-82
2023/09/15 11:24:14;;;;;;;2.00;0.60;;;25.90;54.90;;;;;;5112393;28;20036;-82
2023/09/15 11:26:48;;;;;;;2.63;0.57;;;25.90;54.40;;;;;;5110928;28;20028;-82
2023/09/15 11:29:17;;;;;;;1.52;0.50;;;25.90;53.60;;;;;;5112201;28;20605;-82
2023/09/15 11:31:44;;;;;;;1.55;0.47;;;25.80;54.50;;;;;;5111865;28;20032;-81
2023/09/15 11:34:13;;;;;;;1.30;0.60;;;25.80;55.20;;;;;;5110670;28;20027;-82
2023/09/15 11:36:39;;;;;;;3.00;0.90;;;25.90;54.60;;;;;;5112292;28;20403;-81
2023/09/15 11:39:11;;;;;;;3.85;1.25;;;25.80;55.20;;;;;;5112007;28;20535;-82
2023/09/15 11:41:53;;;;;;;1.85;0.55;;;25.70;54.80;;;;;;5111836;28;20028;-81
2023/09/15 11:44:21;;;;;;;2.30;0.60;;;25.70;54.80;;;;;;5111952;28;20016;-82
2023/09/15 11:46:48;;;;;;;0.93;0.50;;;25.70;54.30;;;;;;5110343;28;20039;-81
2023/09/15 11:49:16;;;;;;;1.50;0.63;;;25.60;53.80;;;;;;5110928;28;20078;-82
2023/09/15 11:51:43;;;;;;;3.17;0.70;;;25.50;54.70;;;;;;5110391;28;20309;-82
2023/09/15 11:54:09;;;;;;;1.70;0.50;;;25.30;55.50;;;;;;5111470;28;20038;-82
2023/09/15 11:56:36;;;;;;;0.80;0.47;;;25.30;55.80;;;;;;5110443;28;20456;-82
2023/09/15 11:59:02;;;;;;;4.35;0.50;;;25.30;54.00;;;;;;5110337;28;20035;-82
2023/09/15 12:01:31;;;;;;;1.50;0.50;;;25.40;54.40;;;;;;5111447;28;20396;-82
2023/09/15 12:03:57;;;;;;;2.13;0.50;;;25.40;55.40;;;;;;5111560;28;20519;-81
2023/09/15 12:06:23;;;;;;;1.23;0.65;;;25.50;53.20;;;;;;5110033;28;20112;-82
2023/09/15 12:08:51;;;;;;;3.85;0.60;;;25.40;53.20;;;;;;5110145;28;20023;-83
2023/09/15 12:11:18;;;;;;;2.17;0.40;;;25.40;54.40;;;;;;5111714;28;20138;-83
2023/09/15 12:13:48;;;;;;;1.23;0.50;;;25.40;55.80;;;;;;5109750;28;20028;-81
2023/09/15 12:16:19;;;;;;;1.25;0.50;;;25.30;56.50;;;;;;5111201;28;20059;-83
2023/09/15 12:18:46;;;;;;;1.50;0.60;;;25.20;56.30;;;;;;5110263;28;20169;-83
2023/09/15 12:21:12;;;;;;;0.98;0.60;;;25.10;56.30;;;;;;5111333;28;20039;-82
2023/09/15 12:23:38;;;;;;;1.13;0.73;;;25.20;55.80;;;;;;5111314;28;20031;-82
2023/09/15 12:26:04;;;;;;;1.05;0.70;;;25.20;56.90;;;;;;5111351;28;20098;-82
2023/09/15 12:28:29;;;;;;;0.88;0.57;;;25.20;56.30;;;;;;5109708;28;20076;-83
2023/09/15 12:31:01;;;;;;;1.52;0.55;;;25.30;55.50;;;;;;5109810;28;20522;-83
2023/09/15 12:33:29;;;;;;;1.02;0.57;;;25.30;56.00;;;;;;5111301;28;20032;-83
2023/09/15 12:35:56;;;;;;;1.88;0.65;;;25.20;55.80;;;;;;5110927;28;20043;-80
2023/09/15 12:38:21;;;;;;;1.42;0.50;;;25.20;55.30;;;;;;5110967;28;20513;-82
2023/09/15 12:40:51;;;;;;;1.60;0.52;;;25.10;56.60;;;;;;5109636;28;20086;-81
2023/09/15 12:43:17;;;;;;;2.50;0.60;;;25.00;57.50;;;;;;5111012;28;20140;-81
2023/09/15 12:45:42;;;;;;;3.22;0.63;;;25.00;57.30;;;;;;5110767;28;20035;-82
2023/09/15 12:48:09;;;;;;;1.15;0.40;;;25.00;57.00;;;;;;5109337;28;20065;-83